Time;durP1;ratioP1;P1;durP2;ratioP2;P2;SDS_P1;SDS_P2;PMS_P1;PMS_P2;Temp;Humidity;BMP_temperature;BMP_pressure;BME280_temperature;BME280_humidity;BME280_pressure;Samples;Min_cycle;Max_cycle;Signal;HPM_P1;HPM_P2
2023/07/22 00:00:33;;;;;;;1.45;0.90;;;;;;;29.15;57.13;99742.69;5053224;28;20222;-68
2023/07/22 00:03:00;;;;;;;0.50;0.50;;;;;;;28.88;57.80;99986.53;5053701;28;20624;-69
2023/07/22 00:05:27;;;;;;;1.23;0.85;;;;;;;29.07;62.62;99985.38;5053472;28;20587;-72
2023/07/22 00:07:53;;;;;;;0.70;0.70;;;;;;;29.05;63.46;99882.19;5052827;28;20203;-70
2023/07/22 00:10:21;;;;;;;1.80;1.05;;;;;;;28.85;62.96;99949.34;5053011;28;20195;-69
2023/07/22 00:12:48;;;;;;;0.60;0.60;;;;;;;29.06;62.21;99925.75;5053118;28;20264;-69
2023/07/22 00:15:15;;;;;;;1.13;0.80;;;;;;;29.02;62.42;99951.81;5053792;28;20245;-70
2023/07/22 00:17:43;;;;;;;1.55;1.17;;;;;;;28.54;70.83;99957.47;5053400;28;20635;-69
2023/07/22 00:20:11;;;;;;;0.73;0.73;;;;;;;28.66;73.86;99985.22;5053288;28;20310;-70
2023/07/22 00:22:39;;;;;;;0.73;0.73;;;;;;;28.60;77.16;99973.13;5053140;28;20291;-69
2023/07/22 00:25:09;;;;;;;0.65;0.65;;;;;;;28.03;84.16;99980.06;5053477;28;20207;-69
2023/07/22 00:27:38;;;;;;;1.02;0.73;;;;;;;27.75;89.34;99967.50;5053017;28;20212;-69
2023/07/22 00:30:06;;;;;;;0.70;0.70;;;;;;;27.49;92.46;99962.78;5052451;28;20286;-69
2023/07/22 00:32:33;;;;;;;1.92;1.00;;;;;;;27.15;95.82;99949.59;5053205;28;20196;-68
2023/07/22 00:34:59;;;;;;;0.70;0.70;;;;;;;27.00;99.00;99933.50;5053287;28;20196;-70
2023/07/22 00:37:27;;;;;;;1.20;0.88;;;;;;;27.04;100.00;99967.00;5018246;28;20203;-67
2023/07/22 00:39:54;;;;;;;0.70;0.70;;;;;;;26.82;100.00;99955.81;5052569;28;20210;-68
2023/07/22 00:42:21;;;;;;;1.48;0.95;;;;;;;26.91;100.00;99927.81;5052773;28;20231;-69
2023/07/22 00:44:51;;;;;;;0.70;0.70;;;;;;;26.93;100.00;99926.78;5053024;28;20294;-69
2023/07/22 00:47:18;;;;;;;1.23;0.88;;;;;;;26.81;100.00;99910.63;5052575;28;20191;-69
2023/07/22 00:49:48;;;;;;;1.08;0.80;;;;;;;27.04;100.00;99935.06;5052144;28;20207;-69
2023/07/22 00:52:16;;;;;;;0.80;0.73;;;;;;;26.99;100.00;99921.16;5052523;28;20207;-68
2023/07/22 00:54:43;;;;;;;0.80;0.80;;;;;;;26.80;100.00;99899.09;5052684;28;20207;-70
2023/07/22 00:57:11;;;;;;;0.73;0.73;;;;;;;26.79;100.00;99881.41;5052649;28;20290;-68
2023/07/22 00:59:39;;;;;;;0.60;0.60;;;;;;;26.86;100.00;99874.84;5052610;28;20211;-68
2023/07/22 01:02:07;;;;;;;0.80;0.80;;;;;;;26.65;100.00;99841.41;5052714;28;20219;-68
2023/07/22 01:04:35;;;;;;;0.85;0.80;;;;;;;26.90;100.00;99903.00;5052739;28;20218;-68
2023/07/22 01:07:04;;;;;;;0.60;0.60;;;;;;;26.88;100.00;99907.56;5017463;28;20692;-68
2023/07/22 01:09:35;;;;;;;0.70;0.70;;;;;;;26.87;100.00;99929.78;5052489;28;20270;-68
2023/07/22 01:12:02;;;;;;;0.60;0.60;;;;;;;26.76;100.00;99926.81;5052518;28;20241;-68
2023/07/22 01:14:29;;;;;;;0.70;0.70;;;;;;;26.77;100.00;99930.34;5052614;28;20298;-68
2023/07/22 01:16:56;;;;;;;0.70;0.70;;;;;;;26.60;100.00;99910.84;5052543;28;20207;-68
2023/07/22 01:19:24;;;;;;;0.70;0.70;;;;;;;26.89;100.00;99933.25;5052127;28;20665;-68
2023/07/22 01:21:52;;;;;;;2.55;1.08;;;;;;;26.58;100.00;99893.22;5051885;28;20280;-68
2023/07/22 01:24:21;;;;;;;0.60;0.60;;;;;;;26.80;100.00;99909.75;5052208;28;20257;-69
2023/07/22 01:26:47;;;;;;;0.70;0.70;;;;;;;26.45;100.00;99886.84;5017330;28;20673;-68
2023/07/22 01:29:14;;;;;;;0.70;0.70;;;;;;;26.55;100.00;99909.34;5052184;28;20199;-68
2023/07/22 01:31:42;;;;;;;2.17;1.00;;;;;;;26.54;100.00;99897.84;5051928;28;20207;-68
2023/07/22 01:34:08;;;;;;;0.60;0.60;;;;;;;26.38;100.00;99874.81;5052078;28;20662;-68
2023/07/22 01:36:35;;;;;;;0.75;0.75;;;;;;;26.27;100.00;99867.41;5017330;28;20214;-69
2023/07/22 01:39:02;;;;;;;1.85;1.50;;;;;;;26.30;100.00;99882.31;5016459;28;20200;-69
2023/07/22 01:41:30;;;;;;;0.95;0.80;;;;;;;26.60;100.00;99909.97;5052088;28;20586;-69
2023/07/22 01:43:57;;;;;;;1.00;0.80;;;;;;;26.52;100.00;99905.06;5052189;28;20286;-68
2023/07/22 01:46:23;;;;;;;0.70;0.70;;;;;;;26.48;100.00;99908.81;5052019;28;20203;-69
2023/07/22 01:48:50;;;;;;;1.80;1.05;;;;;;;26.40;100.00;99894.19;5051572;28;20214;-69
2023/07/22 01:51:17;;;;;;;0.70;0.70;;;;;;;26.41;100.00;99879.97;5051402;28;20253;-69
2023/07/22 01:53:44;;;;;;;2.10;0.98;;;;;;;26.35;100.00;99897.13;5051737;28;20657;-69
2023/07/22 01:56:11;;;;;;;0.63;0.63;;;;;;;26.39;100.00;99914.63;5051755;28;20204;-69
2023/07/22 01:58:39;;;;;;;1.48;0.95;;;;;;;26.49;100.00;99917.66;5051580;28;20639;-69
2023/07/22 02:01:07;;;;;;;0.90;0.90;;;;;;;26.42;100.00;99924.25;5050703;28;20219;-69
2023/07/22 02:03:34;;;;;;;0.98;0.90;;;;;;;26.45;100.00;99940.03;5051868;28;20277;-68
2023/07/22 02:06:05;;;;;;;0.80;0.80;;;;;;;26.52;100.00;99949.41;5052007;28;20200;-68
2023/07/22 02:08:32;;;;;;;1.10;0.90;;;;;;;26.41;100.00;99943.78;5051361;28;20590;-69
2023/07/22 02:11:03;;;;;;;0.77;0.77;;;;;;;26.52;100.00;99963.56;5051205;28;20199;-68
2023/07/22 02:13:30;;;;;;;0.80;0.80;;;;;;;25.95;100.00;99885.00;5051545;28;20675;-69
2023/07/22 02:15:58;;;;;;;0.75;0.75;;;;;;;26.47;100.00;99959.44;5051520;28;20607;-70
2023/07/22 02:18:25;;;;;;;0.70;0.70;;;;;;;26.34;100.00;99945.91;5051450;28;20211;-69
2023/07/22 02:20:52;;;;;;;2.30;1.10;;;;;;;26.31;100.00;99938.09;5051002;28;20246;-70
2023/07/22 02:23:19;;;;;;;0.70;0.70;;;;;;;26.20;100.00;99913.00;5016427;28;20676;-69
2023/07/22 02:25:50;;;;;;;0.98;0.73;;;;;;;26.13;100.00;99902.66;5051383;28;20206;-70
2023/07/22 02:28:20;;;;;;;0.70;0.70;;;;;;;26.09;100.00;99932.13;5051302;28;20206;-69
2023/07/22 02:30:47;;;;;;;1.17;0.75;;;;;;;26.04;100.00;99928.84;5051084;28;20196;-69
2023/07/22 02:33:15;;;;;;;0.70;0.70;;;;;;;26.13;100.00;99928.38;5051601;28;20272;-70
2023/07/22 02:35:42;;;;;;;1.75;0.93;;;;;;;25.92;100.00;99925.00;5051289;28;20210;-70
2023/07/22 02:38:09;;;;;;;0.70;0.70;;;;;;;25.98;100.00;99927.34;5051306;28;20211;-69
2023/07/22 02:40:36;;;;;;;0.80;0.80;;;;;;;26.03;100.00;99929.78;5013848;28;20195;-70
2023/07/22 02:43:04;;;;;;;0.82;0.80;;;;;;;25.97;100.00;99922.97;5016334;28;20269;-70
2023/07/22 02:45:32;;;;;;;1.15;0.77;;;;;;;25.76;100.00;99916.06;4984188;28;20196;-70
2023/07/22 02:47:58;;;;;;;0.80;0.80;;;;;;;25.55;100.00;99882.59;5051198;28;20214;-70
2023/07/22 02:50:27;;;;;;;0.70;0.70;;;;;;;25.89;100.00;99913.69;5016120;28;20203;-70
2023/07/22 02:52:54;;;;;;;0.80;0.80;;;;;;;25.72;100.00;99926.94;5031001;28;20674;-69
2023/07/22 02:55:23;;;;;;;0.70;0.70;;;;;;;25.19;100.00;99842.75;5031279;28;20200;-70
2023/07/22 02:57:50;;;;;;;0.80;0.80;;;;;;;25.72;100.00;99924.28;5047249;28;20728;-70
2023/07/22 03:00:23;;;;;;;0.80;0.80;;;;;;;25.80;100.00;99915.00;5050713;28;20191;-71
2023/07/22 03:02:50;;;;;;;0.70;0.70;;;;;;;25.75;100.00;99930.31;5050640;28;20223;-69
2023/07/22 03:05:17;;;;;;;1.27;0.98;;;;;;;25.62;100.00;99942.44;5050971;28;20206;-69
2023/07/22 03:07:45;;;;;;;0.73;0.73;;;;;;;25.72;100.00;99937.56;5050915;28;20211;-70
2023/07/22 03:10:12;;;;;;;0.82;0.80;;;;;;;25.70;100.00;99940.28;5050933;28;20207;-70
2023/07/22 03:12:39;;;;;;;0.65;0.65;;;;;;;25.91;100.00;99943.69;5053107;28;20636;-70
2023/07/22 03:15:08;;;;;;;1.33;0.90;;;;;;;26.00;100.00;99928.16;5054864;28;20211;-70
2023/07/22 03:17:35;;;;;;;0.70;0.70;;;;;;;26.07;100.00;99940.19;5054933;28;20199;-70
2023/07/22 03:20:04;;;;;;;0.93;0.85;;;;;;;26.06;100.00;99954.41;5019506;28;20196;-70
2023/07/22 03:22:31;;;;;;;0.73;0.73;;;;;;;26.12;100.00;99954.09;5054519;28;20221;-70
2023/07/22 03:24:59;;;;;;;0.77;0.77;;;;;;;26.00;100.00;99917.53;5054733;28;20644;-70
2023/07/22 03:27:26;;;;;;;0.70;0.70;;;;;;;25.99;100.00;99947.69;5019414;28;20200;-70
2023/07/22 03:29:52;;;;;;;1.15;0.90;;;;;;;26.09;100.00;99951.59;5054486;28;20207;-70
2023/07/22 03:32:19;;;;;;;1.13;0.90;;;;;;;26.38;100.00;99943.94;5054370;28;20627;-70
2023/07/22 03:34:46;;;;;;;0.85;0.75;;;;;;;26.73;100.00;99953.59;5054245;28;20257;-70
2023/07/22 03:37:14;;;;;;;0.80;0.80;;;;;;;26.97;100.00;99936.31;5035648;28;20200;-68
2023/07/22 03:39:41;;;;;;;0.63;0.63;;;;;;;27.25;97.98;99921.50;5053628;28;20210;-68
2023/07/22 03:42:09;;;;;;;0.70;0.70;;;;;;;27.96;94.84;99950.25;5018898;28;20702;-68
2023/07/22 03:44:36;;;;;;;0.65;0.65;;;;;;;28.29;90.57;99954.59;5054047;28;20210;-68
2023/07/22 03:47:02;;;;;;;0.73;0.73;;;;;;;28.59;87.32;99952.72;5054234;28;20199;-68
2023/07/22 03:49:29;;;;;;;0.50;0.50;;;;;;;28.91;86.14;99962.28;5054101;28;20199;-70
2023/07/22 03:51:56;;;;;;;1.38;0.85;;;;;;;29.48;81.33;99951.56;5054190;28;20214;-69
2023/07/22 03:54:23;;;;;;;0.80;0.80;;;;;;;30.05;78.65;99943.34;5018653;28;20203;-69
2023/07/22 03:56:50;;;;;;;0.98;0.90;;;;;;;30.49;74.87;99946.56;5035289;28;20218;-70
2023/07/22 03:59:18;;;;;;;1.10;0.88;;;;;;;31.13;69.75;99944.72;5053710;28;20657;-68
2023/07/22 04:01:46;;;;;;;0.73;0.73;;;;;;;31.51;66.33;99948.16;5053582;28;20215;-69
2023/07/22 04:04:13;;;;;;;1.17;0.70;;;;;;;31.94;62.86;99951.22;5053876;28;20595;-69
2023/07/22 04:06:40;;;;;;;0.70;0.70;;;;;;;32.25;62.03;99964.03;5050943;28;20203;-69
2023/07/22 04:09:07;;;;;;;0.93;0.80;;;;;;;32.63;59.97;99958.44;5048420;28;20658;-70
2023/07/22 04:11:34;;;;;;;0.98;0.98;;;;;;;32.90;57.75;99955.41;5017372;28;20203;-69
2023/07/22 04:14:00;;;;;;;1.38;0.75;;;;;;;32.90;59.34;99958.09;5052397;28;20199;-69
2023/07/22 04:16:29;;;;;;;0.50;0.50;;;;;;;32.87;60.44;99972.63;5052892;28;20217;-70
2023/07/22 04:18:56;;;;;;;0.80;0.80;;;;;;;32.97;60.55;99977.25;5053195;28;20217;-70
2023/07/22 04:21:23;;;;;;;0.55;0.55;;;;;;;33.26;58.63;99984.75;5014126;28;20725;-71
2023/07/22 04:23:49;;;;;;;0.63;0.60;;;;;;;33.74;56.62;99982.63;5051739;28;20221;-72
2023/07/22 04:26:16;;;;;;;0.80;0.70;;;;;;;33.92;56.32;99971.31;5053244;28;20285;-71
2023/07/22 04:28:43;;;;;;;0.50;0.50;;;;;;;34.31;55.12;99963.47;5052614;28;20214;-71
2023/07/22 04:31:10;;;;;;;1.10;0.85;;;;;;;34.77;53.15;99968.47;5014302;28;20681;-72
2023/07/22 04:33:38;;;;;;;0.63;0.63;;;;;;;35.25;50.48;99955.22;5049540;28;20234;-72
2023/07/22 04:36:06;;;;;;;0.55;0.55;;;;;;;35.35;50.29;99966.06;5028870;28;20195;-72
2023/07/22 04:38:33;;;;;;;0.65;0.65;;;;;;;35.50;49.21;99948.47;5041387;28;20299;-72
2023/07/22 04:41:02;;;;;;;0.65;0.65;;;;;;;36.08;48.17;99956.69;5016628;28;20199;-71
2023/07/22 04:43:28;;;;;;;0.88;0.68;;;;;;;36.18;47.68;99965.63;5051880;28;20356;-72
2023/07/22 04:45:55;;;;;;;0.50;0.50;;;;;;;35.65;48.64;99973.22;5052314;28;20202;-71
2023/07/22 04:48:23;;;;;;;0.80;0.68;;;;;;;35.86;49.08;99976.66;5050292;28;20861;-72
2023/07/22 04:50:51;;;;;;;0.52;0.52;;;;;;;36.06;48.50;99982.94;5051899;28;20236;-72
2023/07/22 04:53:19;;;;;;;0.73;0.63;;;;;;;36.09;48.52;99990.78;5051976;28;20191;-71
2023/07/22 04:55:46;;;;;;;1.13;0.68;;;;;;;35.71;48.78;99981.63;5050196;28;20202;-71
2023/07/22 04:58:13;;;;;;;1.55;0.80;;;;;;;35.43;50.16;99979.69;5051186;28;20292;-71
2023/07/22 05:00:41;;;;;;;0.50;0.50;;;;;;;35.17;51.10;99978.47;5049202;28;20202;-72
2023/07/22 05:03:07;;;;;;;2.20;1.00;;;;;;;34.91;51.58;99982.56;5051611;28;20215;-70
2023/07/22 05:05:35;;;;;;;0.75;0.75;;;;;;;35.31;52.11;99984.34;5051778;28;20199;-71
2023/07/22 05:08:03;;;;;;;2.28;0.93;;;;;;;35.80;50.54;99991.59;5049588;28;20203;-72
2023/07/22 05:10:30;;;;;;;1.30;0.73;;;;;;;35.87;49.86;99989.19;5007711;28;20679;-70
2023/07/22 05:12:58;;;;;;;1.00;0.70;;;;;;;35.64;50.57;99983.16;5045241;28;20199;-69
2023/07/22 05:15:25;;;;;;;0.80;0.70;;;;;;;35.57;51.10;99981.97;5051817;28;20214;-73
2023/07/22 05:17:52;;;;;;;0.65;0.65;;;;;;;35.56;50.23;99961.41;5048511;28;20206;-69
2023/07/22 05:20:18;;;;;;;1.00;0.77;;;;;;;35.31;51.10;99997.84;5051708;28;20207;-70
2023/07/22 05:22:45;;;;;;;0.63;0.63;;;;;;;35.16;51.21;100001.88;5046517;28;20610;-68
2023/07/22 05:25:13;;;;;;;1.75;0.85;;;;;;;34.65;53.64;100007.25;5040141;28;20190;-70
2023/07/22 05:27:40;;;;;;;0.80;0.80;;;;;;;34.16;55.28;100004.28;5047313;28;20226;-75
2023/07/22 05:30:08;;;;;;;1.45;0.85;;;;;;;33.94;56.78;100001.63;5047240;28;20260;-69
2023/07/22 05:32:35;;;;;;;1.20;0.77;;;;;;;34.20;56.88;100008.44;5047826;28;20199;-69
2023/07/22 05:35:04;;;;;;;1.35;0.82;;;;;;;34.03;56.16;99977.53;5045677;28;20211;-69
2023/07/22 05:37:30;;;;;;;2.17;1.15;;;;;;;34.14;56.30;99992.81;5046806;28;20291;-71
2023/07/22 05:39:57;;;;;;;0.88;0.65;;;;;;;34.56;55.30;100005.31;5044515;28;20224;-69
2023/07/22 05:42:25;;;;;;;1.00;0.75;;;;;;;35.03;53.86;100003.06;5048256;28;20304;-68
2023/07/22 05:44:52;;;;;;;0.70;0.70;;;;;;;35.09;53.27;100008.78;4997241;28;20266;-74
2023/07/22 05:47:19;;;;;;;1.85;0.77;;;;;;;34.60;54.38;100009.47;5029860;28;20203;-68
2023/07/22 05:49:46;;;;;;;0.50;0.50;;;;;;;34.62;54.60;100004.81;4997197;28;20195;-69
2023/07/22 05:52:12;;;;;;;1.55;0.90;;;;;;;33.76;56.26;99945.69;5032397;28;20223;-69
2023/07/22 05:54:39;;;;;;;0.75;0.75;;;;;;;33.86;56.85;100019.28;4997349;28;20742;-69
2023/07/22 05:57:07;;;;;;;1.45;0.70;;;;;;;33.62;59.46;100018.59;5030012;28;20207;-70
2023/07/22 05:59:36;;;;;;;2.47;0.90;;;;;;;33.14;61.90;100027.91;5031605;28;20239;-70
2023/07/22 06:02:02;;;;;;;1.55;0.80;;;;;;;32.71;62.55;100031.19;5033537;28;20223;-68
2023/07/22 06:04:29;;;;;;;1.75;0.90;;;;;;;32.35;63.40;99946.28;5051667;28;20205;-68
2023/07/22 06:06:56;;;;;;;1.20;0.80;;;;;;;33.01;62.82;100019.03;5051814;28;20195;-70
2023/07/22 06:09:23;;;;;;;3.22;0.98;;;;;;;33.20;61.65;100017.50;5047230;28;20750;-71
2023/07/22 06:11:50;;;;;;;1.33;0.75;;;;;;;33.00;63.20;100025.41;5049738;28;20206;-69
2023/07/22 06:14:16;;;;;;;2.08;0.82;;;;;;;32.72;63.31;100014.13;5051073;28;20206;-71
2023/07/22 06:16:44;;;;;;;0.63;0.63;;;;;;;32.59;63.89;100026.78;5046381;28;20210;-71
2023/07/22 06:19:11;;;;;;;2.55;0.93;;;;;;;32.21;65.17;100018.09;5049669;28;20563;-71
2023/07/22 06:21:38;;;;;;;1.27;0.82;;;;;;;32.19;67.70;100014.66;5048645;28;20202;-71
2023/07/22 06:24:06;;;;;;;1.20;0.75;;;;;;;32.04;68.45;100013.94;5031760;28;20602;-76
2023/07/22 06:26:32;;;;;;;3.28;1.52;;;;;;;31.92;68.48;100013.03;5040024;28;20213;-75
2023/07/22 06:28:59;;;;;;;0.85;0.70;;;;;;;31.69;69.55;99988.88;5037906;28;20222;-70
2023/07/22 06:31:30;;;;;;;9.25;1.65;;;;;;;31.15;73.92;100007.09;5044786;28;20203;-72
2023/07/22 06:33:59;;;;;;;2.75;0.95;;;;;;;31.46;73.77;100006.63;5033542;28;20196;-72
2023/07/22 06:36:26;;;;;;;4.20;1.15;;;;;;;31.12;75.45;100013.53;5005726;28;20313;-72
2023/07/22 06:38:53;;;;;;;0.90;0.90;;;;;;;31.21;77.04;100018.25;5050310;28;20199;-72
2023/07/22 06:41:19;;;;;;;5.53;1.33;;;;;;;31.33;73.69;100027.22;5050803;28;20207;-71
2023/07/22 06:43:46;;;;;;;0.80;0.70;;;;;;;31.18;73.59;100020.28;5046213;28;20230;-71
2023/07/22 06:46:13;;;;;;;2.47;1.65;;;;;;;31.40;72.58;100015.94;5037290;28;20207;-73
2023/07/22 06:48:40;;;;;;;2.40;0.98;;;;;;;31.46;74.55;100033.44;5049997;28;20218;-72
2023/07/22 06:51:09;;;;;;;0.70;0.70;;;;;;;31.40;72.11;100020.44;5049447;28;20294;-72
2023/07/22 06:53:36;;;;;;;3.80;1.20;;;;;;;31.42;71.67;100015.84;5007015;28;20636;-72
2023/07/22 06:56:02;;;;;;;0.85;0.70;;;;;;;31.30;72.48;100020.25;5044203;28;20210;-70
2023/07/22 06:58:29;;;;;;;1.08;0.80;;;;;;;31.32;69.56;100010.28;5014771;28;20219;-76
2023/07/22 07:00:56;;;;;;;3.63;1.17;;;;;;;31.18;69.70;100022.97;5031818;28;20199;-71
2023/07/22 07:03:23;;;;;;;7.13;1.40;;;;;;;31.31;70.08;100013.09;5034941;28;20682;-70
2023/07/22 07:05:53;;;;;;;0.57;0.57;;;;;;;31.53;69.34;100020.47;5050400;28;20206;-70
2023/07/22 07:08:21;;;;;;;2.05;0.93;;;;;;;31.67;68.77;100010.47;5034051;28;20253;-71
2023/07/22 07:10:48;;;;;;;2.08;0.80;;;;;;;31.90;67.32;100020.34;5032890;28;20662;-71
2023/07/22 07:13:15;;;;;;;2.80;1.02;;;;;;;31.68;66.88;100014.00;5043755;28;20202;-72
2023/07/22 07:15:42;;;;;;;1.60;0.77;;;;;;;31.77;66.12;100021.34;5039130;28;20207;-71
2023/07/22 07:18:09;;;;;;;0.80;0.80;;;;;;;31.63;63.44;100000.91;5047092;28;20261;-70
2023/07/22 07:20:35;;;;;;;3.45;1.05;;;;;;;31.73;63.60;100004.63;5037314;28;20196;-70
2023/07/22 07:23:02;;;;;;;0.73;0.73;;;;;;;31.66;63.23;100000.69;5041836;28;20230;-71
2023/07/22 07:25:30;;;;;;;3.20;1.00;;;;;;;31.67;62.61;99989.00;5046557;28;20207;-70
2023/07/22 07:27:57;;;;;;;0.70;0.70;;;;;;;31.84;62.87;100015.44;5046771;28;20210;-71
2023/07/22 07:30:24;;;;;;;1.42;0.93;;;;;;;32.05;62.25;100014.78;5024681;28;20207;-71
2023/07/22 07:32:50;;;;;;;1.88;0.82;;;;;;;31.85;60.50;100025.19;5050599;28;20199;-70
2023/07/22 07:35:17;;;;;;;2.20;0.90;;;;;;;31.90;59.95;100017.66;5001769;28;20199;-70
2023/07/22 07:37:44;;;;;;;1.60;0.90;;;;;;;32.04;57.93;100016.63;5030233;28;20203;-70
2023/07/22 07:40:12;;;;;;;0.75;0.65;;;;;;;32.17;57.92;99998.69;5038643;28;20202;-77
2023/07/22 07:42:40;;;;;;;4.35;1.15;;;;;;;32.49;57.92;99998.91;4979260;28;20223;-71
2023/07/22 07:45:08;;;;;;;5.72;1.30;;;;;;;32.64;56.00;100003.09;5046216;28;20709;-72
2023/07/22 07:47:35;;;;;;;4.03;0.98;;;;;;;32.34;56.86;99994.69;5015020;28;20243;-73
2023/07/22 07:50:03;;;;;;;0.60;0.60;;;;;;;32.28;57.12;99979.94;5049810;28;20210;-74
2023/07/22 07:52:29;;;;;;;1.27;0.82;;;;;;;32.49;55.81;99982.78;5049840;28;20290;-74
2023/07/22 07:54:56;;;;;;;0.60;0.60;;;;;;;32.77;55.30;99973.47;5049953;28;20260;-74
2023/07/22 07:57:23;;;;;;;2.30;1.45;;;;;;;32.76;53.42;99979.81;5049651;28;20199;-72
2023/07/22 07:59:51;;;;;;;1.75;0.80;;;;;;;32.94;53.16;99978.38;5052439;28;20203;-72
2023/07/22 08:02:18;;;;;;;0.70;0.70;;;;;;;33.13;50.94;99977.81;5053423;28;20210;-72
2023/07/22 08:04:44;;;;;;;2.50;1.05;;;;;;;33.37;48.88;99960.53;5053325;28;20207;-71
2023/07/22 08:07:16;;;;;;;5.78;1.73;;;;;;;33.61;47.88;99949.59;5053183;28;20199;-71
2023/07/22 08:09:42;;;;;;;2.63;1.02;;;;;;;33.54;47.22;99951.09;5053247;28;20678;-72
2023/07/22 08:12:10;;;;;;;0.68;0.68;;;;;;;33.85;46.30;99954.84;5018203;28;20572;-72
2023/07/22 08:14:37;;;;;;;1.45;0.70;;;;;;;33.62;45.51;99954.03;5053016;28;20252;-73
2023/07/22 08:17:05;;;;;;;5.07;1.15;;;;;;;33.98;44.67;99960.91;5018143;28;20199;-73
2023/07/22 08:19:32;;;;;;;1.98;0.93;;;;;;;33.88;43.78;99943.81;5052983;28;20226;-72
2023/07/22 08:21:58;;;;;;;1.95;0.90;;;;;;;33.88;44.06;99933.91;5052889;28;20195;-72
2023/07/22 08:24:25;;;;;;;1.45;0.80;;;;;;;33.84;43.77;99955.81;5052752;28;20226;-73
2023/07/22 08:26:52;;;;;;;1.60;0.80;;;;;;;33.73;42.70;99972.84;5052766;28;20203;-74
2023/07/22 08:29:19;;;;;;;1.38;1.33;;;;;;;34.00;42.15;99969.69;5052897;28;20199;-74
2023/07/22 08:31:45;;;;;;;1.42;0.90;;;;;;;33.81;42.95;99948.84;5052520;28;20678;-73
2023/07/22 08:34:13;;;;;;;0.95;0.85;;;;;;;33.97;42.66;99956.47;5052811;28;20221;-73
2023/07/22 08:36:40;;;;;;;2.70;0.90;;;;;;;33.86;43.39;99962.75;5052752;28;20214;-73
2023/07/22 08:39:07;;;;;;;0.90;0.63;;;;;;;33.73;44.26;99945.94;5030510;28;20261;-74
2023/07/22 08:41:34;;;;;;;1.90;1.02;;;;;;;34.01;45.71;99954.38;5044006;28;20222;-74
2023/07/22 08:44:01;;;;;;;1.10;0.80;;;;;;;34.27;44.70;99969.25;5052479;28;20229;-73
2023/07/22 08:46:30;;;;;;;3.03;0.95;;;;;;;34.35;44.45;99975.66;5052739;28;20276;-75
2023/07/22 08:48:59;;;;;;;1.75;0.90;;;;;;;34.02;44.01;99966.88;5052279;28;20277;-72
2023/07/22 08:51:29;;;;;;;0.70;0.70;;;;;;;33.70;44.03;99966.88;5052498;28;20205;-72
2023/07/22 08:53:57;;;;;;;1.45;0.90;;;;;;;33.48;44.82;99940.84;5052516;28;20207;-72
2023/07/22 08:56:25;;;;;;;0.90;0.90;;;;;;;33.63;45.14;99966.53;5038735;28;20276;-73
2023/07/22 08:58:52;;;;;;;2.30;0.95;;;;;;;33.84;45.99;99975.50;5052406;28;20227;-72
2023/07/22 09:01:19;;;;;;;0.70;0.70;;;;;;;34.04;46.03;99970.28;5052097;28;20252;-72
2023/07/22 09:03:48;;;;;;;1.65;0.75;;;;;;;33.87;45.67;99979.78;5052154;28;20223;-74
2023/07/22 09:06:15;;;;;;;0.80;0.80;;;;;;;33.76;45.48;99985.19;5051746;28;20616;-74
2023/07/22 09:08:44;;;;;;;5.93;1.25;;;;;;;33.80;45.14;99984.81;5030210;28;20195;-73
2023/07/22 09:11:12;;;;;;;4.22;1.10;;;;;;;33.89;45.53;99973.28;5047626;28;20206;-75
2023/07/22 09:13:40;;;;;;;1.33;0.75;;;;;;;33.74;46.29;99979.09;5052032;28;20257;-74
2023/07/22 09:16:07;;;;;;;0.60;0.60;;;;;;;33.58;47.09;99979.44;5051902;28;20260;-73
2023/07/22 09:18:34;;;;;;;0.75;0.70;;;;;;;33.35;46.84;99959.81;5051932;28;20231;-73
2023/07/22 09:21:01;;;;;;;2.03;0.98;;;;;;;33.31;46.47;99965.56;5052081;28;20210;-74
2023/07/22 09:23:35;;;;;;;1.02;0.75;;;;;;;33.55;46.93;99971.63;5051736;28;20242;-74
2023/07/22 09:26:14;;;;;;;1.25;0.82;;;;;;;33.81;46.09;99967.69;5051935;28;20210;-73
2023/07/22 09:28:51;;;;;;;2.47;0.90;;;;;;;33.68;46.24;99983.13;5037913;28;20209;-72
2023/07/22 09:31:18;;;;;;;0.95;0.95;;;;;;;33.63;45.98;99971.03;5043921;28;20253;-72
2023/07/22 09:33:45;;;;;;;1.27;0.80;;;;;;;33.43;46.79;99923.41;5040832;28;20203;-73
2023/07/22 09:36:12;;;;;;;0.70;0.70;;;;;;;33.79;46.86;99961.56;5031833;28;20199;-72
2023/07/22 09:38:39;;;;;;;1.10;0.65;;;;;;;33.84;47.40;99963.88;5042602;28;20207;-73
2023/07/22 09:41:06;;;;;;;1.35;0.85;;;;;;;33.89;48.43;99969.72;5051735;28;20701;-74
2023/07/22 09:43:38;;;;;;;1.20;0.88;;;;;;;34.26;48.07;99967.53;5051573;28;20230;-72
2023/07/22 09:46:09;;;;;;;3.03;0.95;;;;;;;34.39;47.29;99962.78;5051710;28;20285;-71
2023/07/22 09:48:44;;;;;;;1.50;0.85;;;;;;;34.47;46.83;99956.75;5051577;28;20203;-71
2023/07/22 09:51:15;;;;;;;0.93;0.65;;;;;;;34.40;47.07;99953.72;5051604;28;20236;-73
2023/07/22 09:53:49;;;;;;;2.05;0.85;;;;;;;34.44;46.89;99960.56;5051394;28;20198;-74
2023/07/22 09:56:15;;;;;;;4.07;1.75;;;;;;;34.13;46.71;99954.25;5051283;28;20199;-72
2023/07/22 09:58:48;;;;;;;3.63;1.13;;;;;;;34.33;46.89;99966.88;5051265;28;20745;-73
2023/07/22 10:01:20;;;;;;;1.83;0.90;;;;;;;33.93;48.72;99948.81;5051430;28;20203;-79
2023/07/22 10:03:48;;;;;;;1.65;0.85;;;;;;;33.65;50.26;99964.53;5051675;28;20728;-81
2023/07/22 10:06:16;;;;;;;0.70;0.70;;;;;;;33.92;47.58;99958.72;5051799;28;20269;-82
2023/07/22 10:08:47;;;;;;;1.10;0.88;;;;;;;33.96;46.76;99952.09;5051401;28;20202;-72
2023/07/22 10:11:16;;;;;;;0.73;0.73;;;;;;;33.39;47.25;99968.50;5051543;28;20217;-72
2023/07/22 10:13:44;;;;;;;1.40;1.02;;;;;;;33.50;46.72;99967.63;5051096;28;20261;-71
2023/07/22 10:16:12;;;;;;;1.85;1.20;;;;;;;33.47;46.29;99949.88;5051054;28;20199;-72
2023/07/22 10:18:41;;;;;;;0.98;0.68;;;;;;;33.93;45.76;99956.91;5051006;28;20199;-70
2023/07/22 10:21:08;;;;;;;1.10;0.98;;;;;;;33.98;44.93;99960.91;5050145;28;20592;-74
2023/07/22 10:23:37;;;;;;;0.60;0.60;;;;;;;34.10;45.03;99962.56;5051041;28;20292;-73
2023/07/22 10:26:05;;;;;;;1.70;0.90;;;;;;;34.07;45.07;99959.28;5051191;28;20222;-72
2023/07/22 10:28:33;;;;;;;0.60;0.60;;;;;;;33.85;45.32;99944.91;5051233;28;20209;-73
2023/07/22 10:31:02;;;;;;;2.38;1.02;;;;;;;34.26;44.08;99960.31;5050891;28;20473;-71
2023/07/22 10:33:29;;;;;;;1.10;0.80;;;;;;;34.14;43.21;99950.56;5016536;28;20702;-72
2023/07/22 10:36:05;;;;;;;3.78;1.25;;;;;;;33.77;44.12;99944.72;5050726;28;20218;-71
2023/07/22 10:38:32;;;;;;;0.63;0.63;;;;;;;34.01;45.45;99966.00;5050749;28;20589;-71
2023/07/22 10:40:59;;;;;;;0.85;0.80;;;;;;;34.03;44.45;99964.06;5050676;28;20231;-76
2023/07/22 10:43:27;;;;;;;0.77;0.77;;;;;;;34.02;43.76;99961.50;5051127;28;20226;-77
2023/07/22 10:45:56;;;;;;;1.95;1.20;;;;;;;33.99;43.88;99962.59;5051077;28;20205;-73
2023/07/22 10:48:27;;;;;;;0.80;0.80;;;;;;;34.08;43.83;99982.50;5051356;28;20643;-74
2023/07/22 10:50:58;;;;;;;1.95;0.88;;;;;;;34.16;44.72;99970.16;5051628;28;20190;-78
2023/07/22 10:53:30;;;;;;;0.75;0.75;;;;;;;34.21;44.22;99985.91;5051280;28;20203;-76
2023/07/22 10:56:11;;;;;;;1.17;0.82;;;;;;;34.48;44.27;99964.72;5050779;28;20206;-77
2023/07/22 10:58:57;;;;;;;0.85;0.85;;;;;;;34.76;43.83;99963.19;5051120;28;20272;-76
2023/07/22 11:01:25;;;;;;;0.90;0.90;;;;;;;34.66;44.10;99963.16;5051132;28;20538;-78
2023/07/22 11:04:24;;;;;;;1.10;0.85;;;;;;;34.61;43.11;99972.56;5050629;28;20230;-76
2023/07/22 11:06:55;;;;;;;3.08;1.08;;;;;;;34.50;43.48;99978.06;5050692;28;20629;-81
2023/07/22 11:09:41;;;;;;;0.50;0.50;;;;;;;34.65;43.67;99977.59;5050963;28;20199;-78
2023/07/22 11:12:11;;;;;;;0.80;0.70;;;;;;;34.82;44.38;99968.03;5050860;28;20226;-79
2023/07/22 11:14:47;;;;;;;0.57;0.57;;;;;;;34.72;43.00;99945.59;5050944;28;20641;-77
2023/07/22 11:17:14;;;;;;;0.60;0.60;;;;;;;34.80;43.97;99965.50;5050759;28;20236;-73
2023/07/22 11:19:42;;;;;;;1.75;0.90;;;;;;;35.12;44.79;99953.75;5050349;28;20207;-73
2023/07/22 11:22:10;;;;;;;1.55;0.90;;;;;;;34.45;44.87;99958.72;5015575;28;20207;-73
2023/07/22 11:24:37;;;;;;;0.70;0.70;;;;;;;34.60;44.98;99947.50;5050251;28;20317;-74
2023/07/22 11:27:05;;;;;;;2.58;1.00;;;;;;;35.00;44.48;99946.69;5015358;28;20195;-75
2023/07/22 11:29:32;;;;;;;3.60;1.08;;;;;;;34.90;43.56;99953.91;5045085;28;20254;-75
2023/07/22 11:31:59;;;;;;;1.27;0.73;;;;;;;34.65;44.11;99957.88;5014845;28;20202;-72